createdAt,value
2022-11-16T00:02:23.012Z,97300.86
2022-11-16T00:04:51.277Z,97304.48
2022-11-16T00:07:19.314Z,97303.33
2022-11-16T00:09:47.418Z,97302.04
2022-11-16T00:12:15.486Z,97297.15
2022-11-16T00:14:43.564Z,97296.30
2022-11-16T00:17:11.493Z,97303.73
2022-11-16T00:19:39.499Z,97306.25
2022-11-16T00:22:07.572Z,97305.64
2022-11-16T00:24:35.743Z,97306.58
2022-11-16T00:27:03.927Z,97292.59
2022-11-16T00:29:31.888Z,97276.54
2022-11-16T00:31:59.959Z,97280.47
2022-11-16T00:34:28.747Z,97287.18
2022-11-16T00:36:56.819Z,97287.14
2022-11-16T00:39:25.198Z,97280.16
2022-11-16T00:41:53.267Z,97281.95
2022-11-16T00:44:21.466Z,97279.71
2022-11-16T00:46:49.623Z,97284.23
2022-11-16T00:49:17.694Z,97280.54
2022-11-16T00:51:45.760Z,97274.52
2022-11-16T00:54:14.044Z,97273.80
2022-11-16T00:56:42.313Z,97279.88
2022-11-16T00:59:10.398Z,97277.94
2022-11-16T01:01:38.727Z,97266.19
2022-11-16T01:04:07.658Z,97260.14
2022-11-16T01:06:37.187Z,97256.13
2022-11-16T01:09:05.235Z,97256.94
2022-11-16T01:11:51.847Z,97251.73
2022-11-16T01:14:19.930Z,97248.11
2022-11-16T01:16:50.853Z,97239.13
2022-11-16T01:19:19.030Z,97233.55
2022-11-16T01:21:47.109Z,97242.16
2022-11-16T01:24:15.176Z,97243.73
2022-11-16T01:26:43.555Z,97243.11
2022-11-16T01:29:11.831Z,97244.08
2022-11-16T01:31:43.707Z,97239.54
2022-11-16T01:34:11.762Z,97235.33
2022-11-16T01:36:39.830Z,97232.96
2022-11-16T01:39:08.822Z,97234.58
2022-11-16T01:41:44.472Z,97236.02
2022-11-16T01:44:15.622Z,97233.21
2022-11-16T01:46:54.486Z,97220.73
2022-11-16T01:49:25.686Z,97222.17
2022-11-16T01:52:02.066Z,97225.65
2022-11-16T01:54:37.730Z,97221.20
2022-11-16T01:57:09.854Z,97219.03
2022-11-16T01:59:47.791Z,97223.71
2022-11-16T02:02:19.121Z,97226.17
2022-11-16T02:04:49.075Z,97223.45
2022-11-16T02:07:24.601Z,97223.59
2022-11-16T02:10:19.693Z,97217.60
2022-11-16T02:13:22.167Z,97208.39
2022-11-16T02:16:03.962Z,97196.84
2022-11-16T02:18:59.270Z,97187.98
2022-11-16T02:21:43.011Z,97185.83
2022-11-16T02:24:42.832Z,97179.44
2022-11-16T02:27:32.715Z,97170.08
2022-11-16T02:30:01.529Z,97159.72
2022-11-16T02:32:48.026Z,97156.27
2022-11-16T02:35:25.394Z,97152.95
2022-11-16T02:38:07.295Z,97150.65
2022-11-16T02:40:39.379Z,97150.27
2022-11-16T02:43:10.066Z,97145.11
2022-11-16T02:45:47.800Z,97141.22
2022-11-16T02:48:25.380Z,97139.67
2022-11-16T02:50:54.680Z,97143.27
2022-11-16T02:53:25.218Z,97138.61
2022-11-16T02:55:53.794Z,97138.02
2022-11-16T02:58:25.534Z,97138.51
2022-11-16T03:01:17.006Z,97139.70
2022-11-16T03:04:16.583Z,97137.96
2022-11-16T03:06:48.891Z,97134.56
2022-11-16T03:09:27.578Z,97140.35
2022-11-16T03:12:00.817Z,97149.36
2022-11-16T03:14:40.416Z,97152.64
2022-11-16T03:17:16.060Z,97139.86
2022-11-16T03:20:15.530Z,97130.73
2022-11-16T03:22:54.892Z,97129.01
2022-11-16T03:25:29.646Z,97132.83
2022-11-16T03:28:43.484Z,97126.70
2022-11-16T03:31:16.982Z,97118.40
2022-11-16T03:33:56.126Z,97117.80
2022-11-16T03:36:27.359Z,97110.78
2022-11-16T03:39:01.422Z,97101.98
2022-11-16T03:41:33.253Z,97098.48
2022-11-16T03:44:02.293Z,97101.92
2022-11-16T03:46:30.501Z,97104.55
2022-11-16T03:49:01.226Z,97108.18
2022-11-16T03:51:32.682Z,97105.70
2022-11-16T03:54:00.863Z,97101.30
2022-11-16T03:56:29.342Z,97093.73
2022-11-16T03:58:58.330Z,97088.64
2022-11-16T04:01:26.469Z,97083.95
2022-11-16T04:03:54.689Z,97078.52
2022-11-16T04:06:41.701Z,97075.09
2022-11-16T04:09:29.326Z,97058.16
2022-11-16T04:12:16.157Z,97059.25
2022-11-16T04:15:03.356Z,97064.09
2022-11-16T04:17:50.789Z,97066.71
2022-11-16T04:20:37.499Z,97078.82
2022-11-16T04:23:32.107Z,97082.20
2022-11-16T04:26:00.568Z,97072.78
2022-11-16T04:28:32.187Z,97060.95
2022-11-16T04:31:23.028Z,97045.83
2022-11-16T04:34:24.147Z,97036.05
2022-11-16T04:37:12.595Z,97033.54
2022-11-16T04:39:41.210Z,97038.54
2022-11-16T04:42:19.259Z,97035.63
2022-11-16T04:45:07.047Z,97016.98
2022-11-16T04:47:44.136Z,97005.31
2022-11-16T04:50:12.384Z,97003.25
2022-11-16T04:52:41.299Z,97007.47
2022-11-16T04:55:12.791Z,97015.61
2022-11-16T04:57:40.927Z,97020.31
2022-11-16T05:00:09.993Z,97020.52
2022-11-16T05:02:38.607Z,97033.19
2022-11-16T05:05:07.911Z,97031.35
2022-11-16T05:07:37.257Z,97024.95
2022-11-16T05:10:13.374Z,97019.41
2022-11-16T05:12:41.623Z,97016.64
2022-11-16T05:15:10.336Z,97017.14
2022-11-16T05:17:38.509Z,97014.67
2022-11-16T05:20:29.412Z,97005.52
2022-11-16T05:23:01.692Z,96998.58
2022-11-16T05:25:36.939Z,96992.77
2022-11-16T05:28:07.555Z,96997.67
2022-11-16T05:30:38.806Z,96996.41
2022-11-16T05:33:07.086Z,96992.35
2022-11-16T05:35:38.330Z,96989.44
2022-11-16T05:38:06.396Z,96993.92
2022-11-16T05:40:36.414Z,97003.84
2022-11-16T05:43:04.493Z,97011.19
2022-11-16T05:45:35.470Z,97000.42
2022-11-16T05:48:03.803Z,96993.27
2022-11-16T05:50:33.105Z,96988.45
2022-11-16T05:53:06.090Z,96999.00
2022-11-16T05:55:36.345Z,97007.71
2022-11-16T05:58:04.281Z,97005.38
2022-11-16T06:00:32.229Z,96993.29
2022-11-16T06:03:00.676Z,96990.95
2022-11-16T06:05:39.021Z,96986.67
2022-11-16T06:08:08.976Z,96980.66
2022-11-16T06:10:37.149Z,96981.95
2022-11-16T06:13:05.536Z,96981.55
2022-11-16T06:15:38.511Z,96975.59
2022-11-16T06:18:08.012Z,96977.88
2022-11-16T06:20:39.562Z,96977.32
2022-11-16T06:23:07.741Z,96979.23
2022-11-16T06:25:39.083Z,96986.33
2022-11-16T06:28:08.246Z,96993.94
2022-11-16T06:30:38.511Z,96999.02
2022-11-16T06:33:07.397Z,97000.27
2022-11-16T06:35:35.570Z,96995.20
2022-11-16T06:38:04.492Z,97008.39
2022-11-16T06:40:33.359Z,97017.69
2022-11-16T06:43:02.344Z,97026.77
2022-11-16T06:45:30.471Z,97029.57
2022-11-16T06:48:00.128Z,97032.31
2022-11-16T06:50:28.303Z,97033.91
2022-11-16T06:52:56.577Z,97036.16
2022-11-16T06:55:24.863Z,97032.85
2022-11-16T06:57:53.540Z,97021.27
2022-11-16T07:00:22.117Z,97011.85
2022-11-16T07:02:50.762Z,97003.98
2022-11-16T07:05:20.014Z,97001.71
2022-11-16T07:07:48.244Z,96991.23
2022-11-16T07:10:16.869Z,96988.92
2022-11-16T07:12:44.957Z,96985.35
2022-11-16T07:15:13.939Z,96973.89
2022-11-16T07:17:43.015Z,96959.77
2022-11-16T07:20:12.237Z,96942.58
2022-11-16T07:22:40.718Z,96937.11
2022-11-16T07:25:11.564Z,96941.57
2022-11-16T07:27:39.626Z,96950.91
2022-11-16T07:30:08.407Z,96943.73
2022-11-16T07:33:08.741Z,96932.11
2022-11-16T07:36:09.901Z,96923.08
2022-11-16T07:38:39.286Z,96919.60
2022-11-16T07:41:11.086Z,96919.41
2022-11-16T07:43:51.461Z,96918.48
2022-11-16T07:49:18.269Z,96923.06
2022-11-16T07:51:55.665Z,96924.93
2022-11-16T07:54:35.408Z,96929.10
2022-11-16T07:57:04.398Z,96933.85
2022-11-16T07:59:32.578Z,96940.77
2022-11-16T08:02:01.716Z,96945.11
2022-11-16T08:04:29.867Z,96935.32
2022-11-16T08:06:59.376Z,96931.02
2022-11-16T08:09:27.838Z,96924.77
2022-11-16T08:11:55.905Z,96927.86
2022-11-16T08:14:24.693Z,96923.61
2022-11-16T08:16:53.892Z,96927.41
2022-11-16T08:19:21.841Z,96932.33
2022-11-16T08:21:49.927Z,96938.85
2022-11-16T08:24:18.617Z,96945.28
2022-11-16T08:26:46.999Z,96945.51
2022-11-16T08:29:16.087Z,96938.72
2022-11-16T08:31:48.668Z,96940.48
2022-11-16T08:34:19.812Z,96940.67
2022-11-16T08:36:50.960Z,96942.77
2022-11-16T08:39:20.424Z,96952.30
2022-11-16T08:41:48.539Z,96950.50
2022-11-16T08:44:16.711Z,96951.64
2022-11-16T08:46:46.833Z,96952.42
2022-11-16T08:49:22.890Z,96940.29
2022-11-16T08:51:50.960Z,96928.14
2022-11-16T08:54:20.358Z,96919.48
2022-11-16T08:56:49.250Z,96916.71
2022-11-16T08:59:18.150Z,96918.02
2022-11-16T09:01:52.220Z,96912.87
2022-11-16T09:04:20.315Z,96903.09
2022-11-16T09:06:48.445Z,96898.86
2022-11-16T09:09:16.682Z,96892.66
2022-11-16T09:11:44.967Z,96893.39
2022-11-16T09:14:13.025Z,96892.82
2022-11-16T09:16:41.098Z,96891.42
2022-11-16T09:19:09.496Z,96889.50
2022-11-16T09:21:37.748Z,96895.56
2022-11-16T09:24:06.129Z,96902.09
2022-11-16T09:26:34.132Z,96905.52
2022-11-16T09:29:04.531Z,96907.11
2022-11-16T09:31:34.850Z,96900.08
2022-11-16T09:34:03.132Z,96888.66
2022-11-16T09:36:31.204Z,96886.05
2022-11-16T09:39:30.187Z,96883.06
2022-11-16T09:41:59.599Z,96876.77
2022-11-16T09:44:30.338Z,96868.73
2022-11-16T09:46:59.861Z,96863.96
2022-11-16T09:49:33.442Z,96865.58
2022-11-16T09:52:03.668Z,96869.52
2022-11-16T09:54:35.606Z,96868.13
2022-11-16T09:57:12.050Z,96868.38
2022-11-16T09:59:46.721Z,96864.79
2022-11-16T10:02:24.116Z,96861.69
2022-11-16T10:04:57.733Z,96851.66
2022-11-16T10:07:31.873Z,96846.70
2022-11-16T10:10:00.203Z,96840.42
2022-11-16T10:12:28.180Z,96836.21
2022-11-16T10:15:12.872Z,96832.91
2022-11-16T10:17:58.729Z,96826.42
2022-11-16T10:20:45.130Z,96818.94
2022-11-16T10:23:16.168Z,96819.98
2022-11-16T10:25:45.690Z,96824.40
2022-11-16T10:28:22.733Z,96822.83
2022-11-16T10:31:03.230Z,96818.67
2022-11-16T10:33:36.324Z,96816.35
2022-11-16T10:36:08.987Z,96817.83
2022-11-16T10:38:37.988Z,96813.27
2022-11-16T10:41:14.665Z,96804.21
2022-11-16T10:43:43.442Z,96797.71
2022-11-16T10:46:23.911Z,96792.13
2022-11-16T10:48:57.608Z,96789.23
2022-11-16T10:51:25.683Z,96792.30
2022-11-16T10:53:54.344Z,96800.36
2022-11-16T10:56:25.512Z,96798.97
2022-11-16T10:58:56.766Z,96791.16
2022-11-16T11:01:32.163Z,96790.17
2022-11-16T11:04:29.255Z,96791.31
2022-11-16T11:06:58.759Z,96791.67
2022-11-16T11:09:26.863Z,96789.93
2022-11-16T11:12:20.609Z,96788.39
2022-11-16T11:15:21.404Z,96790.74
2022-11-16T11:18:12.016Z,96784.83
2022-11-16T11:20:44.861Z,96778.46
2022-11-16T11:23:18.941Z,96772.04
2022-11-16T11:25:54.183Z,96768.83
2022-11-16T11:28:28.548Z,96765.66
2022-11-16T11:30:59.344Z,96760.73
2022-11-16T11:33:33.892Z,96765.21
2022-11-16T11:36:02.145Z,96761.80
2022-11-16T11:38:30.721Z,96755.48
2022-11-16T11:41:00.327Z,96757.23
2022-11-16T11:43:29.320Z,96752.85
2022-11-16T11:46:04.107Z,96745.54
2022-11-16T11:48:37.856Z,96739.95
2022-11-16T11:51:32.045Z,96734.33
2022-11-16T11:54:01.040Z,96731.22
2022-11-16T11:56:30.954Z,96730.62
2022-11-16T11:58:58.927Z,96731.44
2022-11-16T12:01:45.430Z,96729.52
2022-11-16T12:04:31.956Z,96731.96
2022-11-16T12:06:59.945Z,96737.90
2022-11-16T12:09:42.921Z,96736.39
2022-11-16T12:12:19.697Z,96732.83
2022-11-16T12:15:06.203Z,96731.16
2022-11-16T12:18:12.588Z,96731.77
2022-11-16T12:21:01.224Z,96731.47
2022-11-16T12:23:58.687Z,96733.73
2022-11-16T12:26:32.496Z,96726.17
2022-11-16T12:29:03.534Z,96725.94
2022-11-16T12:31:50.344Z,96721.82
2022-11-16T12:34:37.151Z,96725.88
2022-11-16T12:37:05.128Z,96723.36
2022-11-16T12:39:43.441Z,96718.83
2022-11-16T12:42:24.094Z,96711.66
2022-11-16T12:44:58.334Z,96709.80
2022-11-16T12:47:35.605Z,96709.19
2022-11-16T12:50:22.517Z,96707.78
2022-11-16T12:53:06.055Z,96703.48
2022-11-16T12:55:36.994Z,96700.57
2022-11-16T12:58:04.971Z,96695.36
2022-11-16T13:00:48.218Z,96690.09
2022-11-16T13:03:21.275Z,96689.08
2022-11-16T13:05:49.243Z,96695.27
2022-11-16T13:08:32.477Z,96698.61
2022-11-16T13:11:09.252Z,96699.14
2022-11-16T13:13:38.386Z,96699.80
2022-11-16T13:16:07.541Z,96699.98
2022-11-16T13:18:38.692Z,96697.63
2022-11-16T13:21:21.302Z,96698.59
2022-11-16T13:24:08.121Z,96699.98
2022-11-16T13:26:54.663Z,96700.54
2022-11-16T13:29:30.495Z,96695.52
2022-11-16T13:32:02.859Z,96689.98
2022-11-16T13:34:32.757Z,96685.36
2022-11-16T13:37:00.831Z,96679.20
2022-11-16T13:39:54.503Z,96676.06
2022-11-16T13:42:22.475Z,96668.25
2022-11-16T13:44:51.756Z,96665.42
2022-11-16T13:47:24.968Z,96659.17
2022-11-16T13:50:03.483Z,96659.10
2022-11-16T13:55:35.062Z,96656.95
2022-11-16T13:58:04.668Z,96651.64
2022-11-16T14:00:41.690Z,96647.67
2022-11-16T14:03:15.963Z,96645.79
2022-11-16T14:05:45.432Z,96650.05
2022-11-16T14:08:19.584Z,96654.95
2022-11-16T14:10:50.517Z,96662.75
2022-11-16T14:13:37.345Z,96664.63
2022-11-16T14:16:17.330Z,96662.17
2022-11-16T14:18:48.330Z,96664.34
2022-11-16T14:21:19.363Z,96663.36
2022-11-16T14:23:53.493Z,96656.76
2022-11-16T14:26:21.450Z,96648.48
2022-11-16T14:29:00.576Z,96641.27
2022-11-16T14:31:45.546Z,96637.88
2022-11-16T14:34:19.191Z,96630.17
2022-11-16T14:36:47.524Z,96623.48
2022-11-16T14:39:17.137Z,96621.23
2022-11-16T14:41:46.439Z,96619.01
2022-11-16T14:44:18.909Z,96619.32
2022-11-16T14:46:46.986Z,96620.72
2022-11-16T14:49:16.699Z,96622.83
2022-11-16T14:51:47.480Z,96621.67
2022-11-16T14:54:26.051Z,96623.80
2022-11-16T14:57:01.700Z,96625.70
2022-11-16T14:59:30.686Z,96627.39
2022-11-16T15:02:01.831Z,96631.06
2022-11-16T15:04:30.113Z,96630.90
2022-11-16T15:06:59.566Z,96626.27
2022-11-16T15:09:29.629Z,96627.30
2022-11-16T15:12:16.811Z,96632.64
2022-11-16T15:14:47.892Z,96632.13
2022-11-16T15:17:17.500Z,96628.76
2022-11-16T15:19:54.072Z,96620.77
2022-11-16T15:22:22.557Z,96611.20
2022-11-16T15:24:54.824Z,96609.35
2022-11-16T15:27:31.394Z,96607.38
2022-11-16T15:30:01.417Z,96609.23
2022-11-16T15:32:29.483Z,96609.77
2022-11-16T15:35:02.478Z,96612.91
2022-11-16T15:37:33.208Z,96614.87
2022-11-16T15:40:02.617Z,96609.04
2022-11-16T15:42:30.686Z,96601.38
2022-11-16T15:45:00.395Z,96601.70
2022-11-16T15:47:28.257Z,96606.09
2022-11-16T15:49:56.437Z,96605.55
2022-11-16T15:52:47.648Z,96603.10
2022-11-16T15:55:31.913Z,96600.32
2022-11-16T15:58:05.089Z,96598.90
2022-11-16T16:00:35.112Z,96594.99
2022-11-16T16:03:07.995Z,96592.54
2022-11-16T16:05:40.071Z,96593.20
2022-11-16T16:08:24.514Z,96593.52
2022-11-16T16:11:01.494Z,96592.73
2022-11-16T16:13:32.734Z,96592.05
2022-11-16T16:16:19.654Z,96588.92
2022-11-16T16:18:47.935Z,96586.73
2022-11-16T16:21:16.417Z,96576.80
2022-11-16T16:23:46.434Z,96573.80
2022-11-16T16:26:14.840Z,96569.59
2022-11-16T16:28:43.296Z,96571.31
2022-11-16T16:31:11.674Z,96569.08
2022-11-16T16:33:39.639Z,96568.04
2022-11-16T16:36:08.224Z,96565.92
2022-11-16T16:38:35.997Z,96565.40
2022-11-16T16:41:04.985Z,96569.13
2022-11-16T16:43:33.158Z,96569.00
2022-11-16T16:46:02.763Z,96571.81
2022-11-16T16:48:31.252Z,96567.59
2022-11-16T16:50:59.213Z,96562.73
2022-11-16T16:53:27.142Z,96554.23
2022-11-16T16:55:55.041Z,96550.60
2022-11-16T16:58:22.926Z,96546.92
2022-11-16T17:00:51.144Z,96541.91
2022-11-16T17:03:19.093Z,96538.23
2022-11-16T17:05:47.029Z,96532.98
2022-11-16T17:08:15.000Z,96530.65
2022-11-16T17:10:42.866Z,96531.23
2022-11-16T17:13:10.844Z,96528.16
2022-11-16T17:15:38.710Z,96528.27
2022-11-16T17:18:06.575Z,96526.59
2022-11-16T17:20:34.438Z,96525.89
2022-11-16T17:23:03.230Z,96530.58
2022-11-16T17:25:33.079Z,96529.52
2022-11-16T17:28:01.036Z,96528.27
2022-11-16T17:30:30.414Z,96526.12
2022-11-16T17:32:58.388Z,96532.59
2022-11-16T17:35:26.356Z,96532.65
2022-11-16T17:37:54.324Z,96533.16
2022-11-16T17:40:22.216Z,96530.52
2022-11-16T17:42:50.159Z,96526.45
2022-11-16T17:45:18.023Z,96521.19
2022-11-16T17:47:45.889Z,96516.71
2022-11-16T17:50:14.095Z,96517.88
2022-11-16T17:52:42.042Z,96515.99
2022-11-16T17:55:09.899Z,96518.27
2022-11-16T17:57:37.767Z,96516.07
2022-11-16T18:00:06.564Z,96513.75
2022-11-16T18:02:34.527Z,96509.60
2022-11-16T18:05:02.603Z,96508.77
2022-11-16T18:07:30.518Z,96506.70
2022-11-16T18:09:58.440Z,96503.02
2022-11-16T18:12:26.507Z,96502.21
2022-11-16T18:15:21.340Z,96498.66
2022-11-16T18:17:42.257Z,96499.93
2022-11-16T18:20:10.487Z,96499.13
2022-11-16T18:22:38.575Z,96500.92
2022-11-16T18:25:07.552Z,96496.05
2022-11-16T18:27:35.315Z,96498.52
2022-11-16T18:30:03.223Z,96499.11
2022-11-16T18:32:31.157Z,96502.91
2022-11-16T18:34:59.537Z,96508.10
2022-11-16T18:37:27.505Z,96511.06
2022-11-16T18:39:55.409Z,96514.29
2022-11-16T18:42:23.254Z,96510.98
2022-11-16T18:44:51.612Z,96511.56
2022-11-16T18:47:19.479Z,96517.08
2022-11-16T18:49:47.314Z,96519.51
2022-11-16T18:52:15.220Z,96515.15
2022-11-16T18:54:43.093Z,96507.40
2022-11-16T18:57:11.272Z,96503.17
2022-11-16T18:59:39.129Z,96499.13
2022-11-16T19:02:06.994Z,96494.71
2022-11-16T19:04:34.962Z,96494.38
2022-11-16T19:07:02.976Z,96495.39
2022-11-16T19:09:31.106Z,96489.21
2022-11-16T19:11:58.973Z,96487.24
2022-11-16T19:14:26.842Z,96486.98
2022-11-16T19:16:57.349Z,96478.41
2022-11-16T19:19:27.900Z,96469.19
2022-11-16T19:21:57.107Z,96464.33
2022-11-16T19:24:24.959Z,96460.73
2022-11-16T19:26:53.133Z,96460.76
2022-11-16T19:29:21.000Z,96460.85
2022-11-16T19:31:49.073Z,96455.88
2022-11-16T19:34:16.944Z,96450.38
2022-11-16T19:36:44.815Z,96442.69
2022-11-16T19:39:12.780Z,96445.89
2022-11-16T19:41:40.644Z,96448.11
2022-11-16T19:44:08.621Z,96441.70
2022-11-16T19:46:36.787Z,96437.05
2022-11-16T19:49:04.766Z,96433.91
2022-11-16T19:51:33.754Z,96432.52
2022-11-16T19:54:02.551Z,96434.04
2022-11-16T19:56:30.606Z,96430.41
2022-11-16T19:58:58.688Z,96424.53
2022-11-16T20:01:29.537Z,96426.80
2022-11-16T20:03:58.920Z,96425.57
2022-11-16T20:06:29.327Z,96424.53
2022-11-16T20:09:00.702Z,96421.09
2022-11-16T20:11:29.927Z,96416.80
2022-11-16T20:13:58.551Z,96416.59
2022-11-16T20:16:27.606Z,96414.83
2022-11-16T20:18:55.754Z,96410.91
2022-11-16T20:21:25.764Z,96404.90
2022-11-16T20:23:54.042Z,96399.33
2022-11-16T20:26:22.933Z,96395.26
2022-11-16T20:28:52.644Z,96394.02
2022-11-16T20:31:21.917Z,96398.94
2022-11-16T20:33:51.248Z,96391.86
2022-11-16T20:36:19.826Z,96396.56
2022-11-16T20:38:47.802Z,96394.77
2022-11-16T20:41:19.965Z,96398.36
2022-11-16T20:43:50.495Z,96403.80
2022-11-16T20:46:19.078Z,96397.47
2022-11-16T20:48:47.469Z,96389.72
2022-11-16T20:51:17.075Z,96381.71
2022-11-16T20:53:46.166Z,96379.53
2022-11-16T20:56:14.949Z,96374.19
2022-11-16T20:58:43.333Z,96370.33
2022-11-16T21:01:15.638Z,96369.64
2022-11-16T21:03:45.008Z,96370.30
2022-11-16T21:06:13.795Z,96366.22
2022-11-16T21:08:42.175Z,96362.10
2022-11-16T21:11:14.444Z,96360.84
2022-11-16T21:14:00.642Z,96362.48
2022-11-16T21:16:28.504Z,96366.70
2022-11-16T21:18:56.578Z,96371.44
2022-11-16T21:21:24.965Z,96376.05
2022-11-16T21:23:54.203Z,96373.39
2022-11-16T21:26:23.355Z,96374.70
2022-11-16T21:28:52.092Z,96375.70
2022-11-16T21:31:21.696Z,96372.98
2022-11-16T21:33:49.620Z,96373.48
2022-11-16T21:36:18.608Z,96368.96
2022-11-16T21:38:47.090Z,96367.09
2022-11-16T21:41:15.883Z,96366.19
2022-11-16T21:43:44.409Z,96364.45
2022-11-16T21:46:13.768Z,96358.40
2022-11-16T21:48:41.943Z,96354.42
2022-11-16T21:51:11.142Z,96346.69
2022-11-16T21:53:39.412Z,96344.80
2022-11-16T21:56:08.307Z,96340.98
2022-11-16T21:58:36.169Z,96337.62
2022-11-16T22:01:04.181Z,96333.65
2022-11-16T22:03:32.795Z,96332.30
2022-11-16T22:06:20.661Z,96330.41
2022-11-16T22:08:48.940Z,96324.90
2022-11-16T22:11:16.925Z,96323.55
2022-11-16T22:13:44.773Z,96328.71
2022-11-16T22:16:15.211Z,96329.19
2022-11-16T22:18:43.278Z,96327.94
2022-11-16T22:21:11.504Z,96326.02
2022-11-16T22:23:39.728Z,96328.21
2022-11-16T22:26:08.944Z,96326.90
2022-11-16T22:28:37.621Z,96324.66
2022-11-16T22:31:06.515Z,96325.59
2022-11-16T22:33:35.078Z,96322.84
2022-11-16T22:36:04.037Z,96316.19
2022-11-16T22:38:33.528Z,96313.41
2022-11-16T22:41:01.560Z,96309.95
2022-11-16T22:43:30.573Z,96306.21
2022-11-16T22:46:02.754Z,96305.02
2022-11-16T22:48:31.301Z,96302.72
2022-11-16T22:51:15.343Z,96298.02
2022-11-16T22:53:43.210Z,96293.37
2022-11-16T22:56:11.289Z,96290.01
2022-11-16T22:58:39.867Z,96287.84
2022-11-16T23:01:09.071Z,96282.86
2022-11-16T23:03:37.783Z,96279.40
2022-11-16T23:06:06.746Z,96275.73
2022-11-16T23:08:35.328Z,96276.01
2022-11-16T23:11:23.778Z,96269.07
2022-11-16T23:14:11.307Z,96264.50
2022-11-16T23:16:39.671Z,96260.13
2022-11-16T23:19:28.343Z,96253.25
2022-11-16T23:22:15.177Z,96253.77
2022-11-16T23:25:02.173Z,96252.18
2022-11-16T23:27:38.544Z,96252.82
2022-11-16T23:30:12.100Z,96253.52
2022-11-16T23:32:41.538Z,96253.95
2022-11-16T23:35:09.918Z,96247.46
2022-11-16T23:37:51.663Z,96242.98
2022-11-16T23:40:20.398Z,96244.20
2022-11-16T23:43:07.116Z,96243.68
2022-11-16T23:45:34.980Z,96241.55
2022-11-16T23:48:02.839Z,96241.49
2022-11-16T23:50:30.714Z,96242.52
2022-11-16T23:52:58.579Z,96241.29
2022-11-16T23:55:27.022Z,96242.62
2022-11-16T23:57:55.336Z,96238.84
